Terminal Aerodrome Forecast
Issued by NWS

Home | Current Version | Previous Version | Text Only | Print | Product List | Glossary On
Versions: 1 2 3 4 5 6 7 8 9 10 11 12 13 14 15
000
FTUS43 KDLH 182018 AAB
TAFBRD
TAF AMD
KBRD 182018Z 1820/1918 28015G23KT P6SM SKC
     FM190000 27009KT P6SM SKC
     FM190300 26007KT P6SM SKC WS020/29035KT
     FM190600 25005KT P6SM SKC=

USA.gov is the U.S. government's official web portal to all federal, state and local government web resources and services.